Time;durP1;ratioP1;P1;durP2;ratioP2;P2;SDS_P1;SDS_P2;PMS_P1;PMS_P2;Temp;Humidity;BMP_temperature;BMP_pressure;BME280_temperature;BME280_humidity;BME280_pressure;Samples;Min_cycle;Max_cycle;Signal;HPM_P1;HPM_P2
2022/06/05 00:01:20;;;;;;;8.43;7.63;;;18.20;99.90;;;;;;5050836;28;20171;-66
2022/06/05 00:03:53;;;;;;;8.10;7.50;;;18.20;99.90;;;;;;5063734;28;20209;-66
2022/06/05 00:06:34;;;;;;;8.17;7.50;;;18.10;99.90;;;;;;5071629;28;20158;-66
2022/06/05 00:09:30;;;;;;;8.67;8.07;;;18.20;99.90;;;;;;5057707;28;20262;-67
2022/06/05 00:12:16;;;;;;;9.10;8.20;;;18.10;99.90;;;;;;5065350;28;20209;-66
2022/06/05 00:14:43;;;;;;;9.47;8.50;;;18.20;99.90;;;;;;5071284;28;20174;-66
2022/06/05 00:17:16;;;;;;;8.20;7.63;;;18.20;99.90;;;;;;5055136;28;20233;-67
2022/06/05 00:19:45;;;;;;;8.07;7.47;;;18.20;99.90;;;;;;5051375;28;20198;-65
2022/06/05 00:22:12;;;;;;;8.83;8.03;;;18.30;99.90;;;;;;5066692;28;20213;-65
2022/06/05 00:24:37;;;;;;;8.60;8.00;;;18.40;99.90;;;;;;5070908;28;20672;-66
2022/06/05 00:27:27;;;;;;;8.43;7.73;;;18.50;99.90;;;;;;5069515;28;20178;-64
2022/06/05 00:30:11;;;;;;;9.17;8.47;;;18.50;99.90;;;;;;5071252;28;20231;-65
2022/06/05 00:32:44;;;;;;;8.83;8.03;;;18.50;99.90;;;;;;5031318;28;20191;-65
2022/06/05 00:35:15;;;;;;;8.57;7.87;;;18.40;99.90;;;;;;5030913;28;20233;-65
2022/06/05 00:38:09;;;;;;;8.37;7.77;;;18.40;99.90;;;;;;5031363;28;20460;-65
2022/06/05 00:41:04;;;;;;;9.47;8.73;;;18.30;99.90;;;;;;5035841;28;20221;-65
2022/06/05 00:43:30;;;;;;;8.70;8.00;;;18.20;99.90;;;;;;5070621;28;20193;-65
2022/06/05 00:45:57;;;;;;;9.77;8.87;;;18.20;99.90;;;;;;5066294;28;20168;-65
2022/06/05 00:48:23;;;;;;;9.23;8.43;;;18.20;99.90;;;;;;5051139;28;20175;-65
2022/06/05 00:50:49;;;;;;;11.00;8.70;;;18.10;99.90;;;;;;5052252;28;20193;-65
2022/06/05 00:53:15;;;;;;;8.60;8.00;;;18.00;99.90;;;;;;5050827;28;20195;-65
2022/06/05 00:55:44;;;;;;;8.80;8.10;;;18.00;99.90;;;;;;5053612;28;20178;-65
2022/06/05 00:58:10;;;;;;;8.77;8.07;;;18.00;99.90;;;;;;5074804;28;20208;-66
2022/06/05 01:00:40;;;;;;;8.97;8.27;;;17.90;99.90;;;;;;5074650;28;20181;-67
2022/06/05 01:03:09;;;;;;;9.67;8.97;;;18.00;99.90;;;;;;5054789;28;20261;-66
2022/06/05 01:05:35;;;;;;;9.63;8.93;;;18.00;99.90;;;;;;5054219;28;20205;-64
2022/06/05 01:08:02;;;;;;;10.07;9.27;;;18.00;99.90;;;;;;5073142;28;20170;-65
2022/06/05 01:10:51;;;;;;;9.47;8.63;;;17.90;99.90;;;;;;5074469;28;20545;-65
2022/06/05 01:13:49;;;;;;;9.83;8.70;;;17.80;99.90;;;;;;5034070;28;20235;-65
2022/06/05 01:16:38;;;;;;;10.77;9.87;;;17.80;99.90;;;;;;5040350;28;20235;-65
2022/06/05 01:19:34;;;;;;;9.57;8.87;;;17.80;99.90;;;;;;5070324;28;20256;-64
2022/06/05 01:22:11;;;;;;;9.87;8.97;;;17.80;99.90;;;;;;5054158;28;20171;-65
2022/06/05 01:24:56;;;;;;;9.67;8.87;;;17.80;99.90;;;;;;5060880;28;20594;-65
2022/06/05 01:27:27;;;;;;;9.93;9.10;;;17.80;99.90;;;;;;5074030;28;20174;-65
2022/06/05 01:30:10;;;;;;;10.30;9.50;;;17.80;99.90;;;;;;5064655;28;20183;-65
2022/06/05 01:32:46;;;;;;;11.50;9.87;;;17.80;99.90;;;;;;5053660;28;20608;-65
2022/06/05 01:35:24;;;;;;;10.10;9.10;;;17.80;99.90;;;;;;5064146;28;20876;-65
2022/06/05 01:37:58;;;;;;;10.17;9.30;;;17.80;99.90;;;;;;5073644;28;20174;-64
2022/06/05 01:40:40;;;;;;;9.53;8.57;;;17.80;99.90;;;;;;5072076;28;20175;-65
2022/06/05 01:43:11;;;;;;;10.40;9.40;;;17.80;99.90;;;;;;5073428;28;20185;-65
2022/06/05 01:45:49;;;;;;;11.03;10.23;;;17.80;99.90;;;;;;5053154;28;20735;-65
2022/06/05 01:48:22;;;;;;;11.60;10.70;;;17.70;99.90;;;;;;5067460;28;20186;-65
2022/06/05 01:50:58;;;;;;;11.53;10.63;;;17.70;99.90;;;;;;5073660;28;20173;-65
2022/06/05 01:53:33;;;;;;;10.70;9.87;;;17.70;99.90;;;;;;5058258;28;20209;-66
2022/06/05 01:56:14;;;;;;;10.03;9.23;;;17.60;99.90;;;;;;5053319;28;20170;-65
2022/06/05 01:58:44;;;;;;;11.27;10.27;;;17.60;99.90;;;;;;5069324;28;20181;-65
2022/06/05 02:01:22;;;;;;;10.17;9.33;;;17.50;99.90;;;;;;5073386;28;20178;-65
2022/06/05 02:04:06;;;;;;;11.20;10.17;;;17.50;99.90;;;;;;5055821;28;20198;-65
2022/06/05 02:06:38;;;;;;;10.37;9.60;;;17.50;99.90;;;;;;5052813;28;20709;-65
2022/06/05 02:09:23;;;;;;;10.37;9.57;;;17.50;99.90;;;;;;5070739;28;20214;-65
2022/06/05 02:11:49;;;;;;;10.07;9.27;;;17.50;99.90;;;;;;5057354;28;20594;-65
2022/06/05 02:14:15;;;;;;;10.67;9.40;;;17.40;99.90;;;;;;5052523;28;20702;-65
2022/06/05 02:16:43;;;;;;;10.37;9.53;;;17.50;99.90;;;;;;5070880;28;20583;-65
2022/06/05 02:19:13;;;;;;;11.13;10.03;;;17.50;99.90;;;;;;5061239;28;20182;-65
2022/06/05 02:21:40;;;;;;;9.63;8.93;;;17.50;99.90;;;;;;5052884;28;20171;-65
2022/06/05 02:24:07;;;;;;;9.80;9.10;;;17.40;99.90;;;;;;5062641;28;20296;-65
2022/06/05 02:26:33;;;;;;;9.90;9.13;;;17.40;99.90;;;;;;5073075;28;20174;-65
2022/06/05 02:29:03;;;;;;;10.43;9.63;;;17.40;99.90;;;;;;5067239;28;20330;-65
2022/06/05 02:31:41;;;;;;;9.23;8.57;;;17.40;99.90;;;;;;5039536;28;20167;-65
2022/06/05 02:34:30;;;;;;;10.70;9.80;;;17.40;99.90;;;;;;5032192;28;20256;-65
2022/06/05 02:37:17;;;;;;;9.07;8.43;;;17.40;99.90;;;;;;5032597;28;20176;-65
2022/06/05 02:39:58;;;;;;;9.40;8.67;;;17.40;99.90;;;;;;5058879;28;20182;-66
2022/06/05 02:42:37;;;;;;;10.37;9.53;;;17.40;99.90;;;;;;5072117;28;20589;-65
2022/06/05 02:45:27;;;;;;;9.43;8.53;;;17.30;99.90;;;;;;5032008;28;20207;-65
2022/06/05 02:48:10;;;;;;;9.43;8.70;;;17.30;99.90;;;;;;5038730;28;20178;-65
2022/06/05 02:50:44;;;;;;;9.50;8.80;;;17.20;99.90;;;;;;5072331;28;20170;-65
2022/06/05 02:53:12;;;;;;;9.53;8.83;;;17.30;99.90;;;;;;5058473;28;20198;-66
2022/06/05 02:55:38;;;;;;;9.27;8.43;;;17.20;99.90;;;;;;5052199;28;20553;-65
2022/06/05 02:58:04;;;;;;;9.23;8.53;;;17.20;99.90;;;;;;5064096;28;20266;-64
2022/06/05 03:00:32;;;;;;;9.10;8.40;;;17.20;99.90;;;;;;5072284;28;20174;-65
2022/06/05 03:05:43;;;;;;;9.07;8.37;;;17.20;99.90;;;;;;5051644;28;20218;-65
2022/06/05 03:08:11;;;;;;;10.03;9.13;;;17.30;99.90;;;;;;5062960;28;20178;-65
2022/06/05 03:10:37;;;;;;;9.07;8.37;;;17.30;99.90;;;;;;5069802;28;20188;-65
2022/06/05 03:13:03;;;;;;;9.50;8.83;;;17.20;99.90;;;;;;5051669;28;20197;-65
2022/06/05 03:15:29;;;;;;;9.77;9.07;;;17.30;99.90;;;;;;5051556;28;20197;-65
2022/06/05 03:17:55;;;;;;;11.07;9.53;;;17.30;99.90;;;;;;5071002;28;20170;-65
2022/06/05 03:20:21;;;;;;;9.30;8.60;;;17.20;99.90;;;;;;5071741;28;20174;-65
2022/06/05 03:22:47;;;;;;;10.90;9.90;;;17.20;99.90;;;;;;5052664;28;20207;-65
2022/06/05 03:25:18;;;;;;;10.17;9.47;;;17.30;99.90;;;;;;5050416;28;20650;-65
2022/06/05 03:27:44;;;;;;;10.23;9.43;;;17.20;99.90;;;;;;5068585;28;20232;-65
2022/06/05 03:30:11;;;;;;;9.37;8.57;;;17.20;99.90;;;;;;5071449;28;20179;-65
2022/06/05 03:32:37;;;;;;;9.63;8.83;;;17.20;99.90;;;;;;5055222;28;20191;-65
2022/06/05 03:35:04;;;;;;;9.13;8.43;;;17.30;99.90;;;;;;5051052;28;20244;-65
2022/06/05 03:37:29;;;;;;;9.80;9.00;;;17.30;99.90;;;;;;5052606;28;20240;-65
2022/06/05 03:39:55;;;;;;;8.77;7.97;;;17.40;99.90;;;;;;5051614;28;20170;-65
2022/06/05 03:42:20;;;;;;;8.70;8.13;;;17.40;99.90;;;;;;5063388;28;20181;-65
2022/06/05 03:44:46;;;;;;;8.93;8.23;;;17.50;99.90;;;;;;5071097;28;20670;-65
2022/06/05 03:47:12;;;;;;;9.00;8.30;;;17.60;99.90;;;;;;5060434;28;20208;-65
2022/06/05 03:49:38;;;;;;;9.27;8.47;;;17.60;99.90;;;;;;5051087;28;20186;-65
2022/06/05 03:52:05;;;;;;;9.37;8.47;;;17.70;99.90;;;;;;5059416;28;20255;-65
2022/06/05 03:54:31;;;;;;;10.00;8.40;;;17.70;99.90;;;;;;5071016;28;20190;-66
2022/06/05 03:56:57;;;;;;;9.10;8.40;;;17.70;99.90;;;;;;5064088;28;20547;-65
2022/06/05 03:59:23;;;;;;;8.57;7.97;;;17.80;99.90;;;;;;5051220;28;20179;-65
2022/06/05 04:01:48;;;;;;;8.50;7.83;;;17.90;99.90;;;;;;5056086;28;20174;-66
2022/06/05 04:04:14;;;;;;;8.23;7.63;;;17.90;99.90;;;;;;5068078;28;20209;-64
2022/06/05 04:06:40;;;;;;;9.27;8.50;;;18.00;99.90;;;;;;5051209;28;20171;-65
2022/06/05 04:09:07;;;;;;;9.63;8.37;;;18.00;99.90;;;;;;5056464;28;20166;-65
2022/06/05 04:11:35;;;;;;;9.20;8.47;;;18.00;99.90;;;;;;5071383;28;20166;-66
2022/06/05 04:14:01;;;;;;;9.37;8.63;;;18.00;99.90;;;;;;5064582;28;20653;-66
2022/06/05 04:16:30;;;;;;;7.67;7.17;;;18.10;99.90;;;;;;5051591;28;20185;-65
2022/06/05 04:18:57;;;;;;;7.63;7.13;;;18.10;99.90;;;;;;5054542;28;20176;-65
2022/06/05 04:21:29;;;;;;;7.80;7.20;;;18.20;99.90;;;;;;5072557;28;20322;-65
2022/06/05 04:23:56;;;;;;;9.00;8.10;;;18.30;99.90;;;;;;5098090;22;20229;-65
2022/06/05 04:26:30;;;;;;;8.30;7.60;;;18.40;99.90;;;;;;5072665;28;20636;-65
2022/06/05 04:28:56;;;;;;;7.77;7.10;;;18.50;99.90;;;;;;5072012;28;20173;-64
2022/06/05 04:31:29;;;;;;;9.00;7.13;;;18.60;99.90;;;;;;5074836;28;20174;-65
2022/06/05 04:33:57;;;;;;;7.77;7.10;;;18.70;99.90;;;;;;5062314;28;20222;-65
2022/06/05 04:36:23;;;;;;;7.47;6.87;;;18.80;99.90;;;;;;5054915;28;20202;-64
2022/06/05 04:38:49;;;;;;;6.97;6.43;;;18.80;99.90;;;;;;5054426;28;20626;-65
2022/06/05 04:41:15;;;;;;;7.10;6.60;;;18.90;99.90;;;;;;5054663;28;20695;-64
2022/06/05 04:43:41;;;;;;;7.43;6.93;;;19.00;99.90;;;;;;5053806;28;20198;-64
2022/06/05 04:46:08;;;;;;;8.13;7.43;;;19.00;99.90;;;;;;5054358;28;20250;-65
2022/06/05 04:48:34;;;;;;;7.90;7.30;;;19.10;99.90;;;;;;5054369;28;20171;-64
2022/06/05 04:51:06;;;;;;;7.30;6.87;;;19.20;99.90;;;;;;5054340;28;20181;-64
2022/06/05 04:53:33;;;;;;;7.67;7.17;;;19.20;99.90;;;;;;5053969;28;20194;-64
2022/06/05 04:56:02;;;;;;;7.70;7.00;;;19.30;99.90;;;;;;5054244;28;20548;-65
2022/06/05 04:58:28;;;;;;;8.50;7.00;;;19.30;99.90;;;;;;5054161;28;20249;-65
2022/06/05 05:00:54;;;;;;;7.37;6.87;;;19.40;99.90;;;;;;5054408;28;20203;-64
2022/06/05 05:03:19;;;;;;;8.03;7.43;;;19.40;99.90;;;;;;5054213;28;20199;-66
2022/06/05 05:05:45;;;;;;;7.93;7.33;;;19.40;99.90;;;;;;5053600;28;20211;-65
2022/06/05 05:08:10;;;;;;;7.93;7.33;;;19.50;99.90;;;;;;5054037;28;20175;-65
2022/06/05 05:10:36;;;;;;;8.40;7.80;;;19.50;99.90;;;;;;5054258;28;20258;-64
2022/06/05 05:13:01;;;;;;;7.70;7.20;;;19.50;99.90;;;;;;5053825;28;20231;-65
2022/06/05 05:15:27;;;;;;;7.50;7.00;;;19.50;99.90;;;;;;5053816;28;20182;-65
2022/06/05 05:17:53;;;;;;;7.13;6.63;;;19.50;99.90;;;;;;5053806;28;20175;-65
2022/06/05 05:20:19;;;;;;;7.33;6.83;;;19.50;99.90;;;;;;5054007;28;20186;-65
2022/06/05 05:22:45;;;;;;;7.60;6.83;;;19.50;99.90;;;;;;5053910;28;20298;-65
2022/06/05 05:25:11;;;;;;;7.93;7.23;;;19.60;99.90;;;;;;5053516;28;20240;-65
2022/06/05 05:27:39;;;;;;;8.00;7.27;;;19.50;99.90;;;;;;5053746;28;20195;-65
2022/06/05 05:30:06;;;;;;;7.33;6.77;;;19.60;99.90;;;;;;5051574;28;20171;-65
2022/06/05 05:32:32;;;;;;;8.57;7.87;;;19.50;99.90;;;;;;5053940;28;20174;-65
2022/06/05 05:34:58;;;;;;;7.77;7.17;;;19.50;99.90;;;;;;5053268;28;20249;-65
2022/06/05 05:37:24;;;;;;;8.00;7.40;;;19.50;99.90;;;;;;5052604;28;20175;-66
2022/06/05 05:42:34;;;;;;;7.80;7.10;;;19.50;99.90;;;;;;5053501;28;20213;-65
2022/06/05 05:45:00;;;;;;;7.10;6.60;;;19.60;99.90;;;;;;5052994;28;20233;-65
2022/06/05 05:47:31;;;;;;;7.50;7.00;;;19.60;99.90;;;;;;5053580;28;20171;-65
2022/06/05 05:50:01;;;;;;;8.23;7.47;;;19.70;99.90;;;;;;5053257;28;20178;-64
2022/06/05 05:52:28;;;;;;;8.93;8.23;;;19.80;99.90;;;;;;5053514;28;20167;-64
2022/06/05 05:54:54;;;;;;;7.80;7.13;;;19.80;99.90;;;;;;5052960;28;20666;-64
2022/06/05 05:57:20;;;;;;;8.33;7.70;;;19.80;99.90;;;;;;5053322;28;20187;-64
2022/06/05 05:59:46;;;;;;;7.73;7.17;;;19.90;99.90;;;;;;5053291;28;20269;-64
2022/06/05 06:02:16;;;;;;;7.97;7.33;;;19.90;99.90;;;;;;5053100;28;20274;-65
2022/06/05 06:04:43;;;;;;;8.30;7.60;;;19.90;99.90;;;;;;5053053;28;20206;-64
2022/06/05 06:07:09;;;;;;;8.30;7.60;;;20.00;99.90;;;;;;5052972;28;20262;-64
2022/06/05 06:09:36;;;;;;;7.87;7.00;;;19.90;99.90;;;;;;5052807;28;20183;-64
2022/06/05 06:12:02;;;;;;;8.23;7.63;;;20.00;99.90;;;;;;5053127;28;20167;-65
2022/06/05 06:14:27;;;;;;;8.13;7.43;;;20.00;99.90;;;;;;5052568;28;20252;-64
2022/06/05 06:16:53;;;;;;;8.00;7.40;;;20.00;99.90;;;;;;5053210;28;20643;-64
2022/06/05 06:19:19;;;;;;;7.73;7.13;;;20.00;99.90;;;;;;5052695;28;20190;-65
2022/06/05 06:21:44;;;;;;;7.50;6.77;;;20.10;99.90;;;;;;5039650;28;20554;-65
2022/06/05 06:24:11;;;;;;;7.93;7.30;;;20.20;99.90;;;;;;5033424;28;20245;-65
2022/06/05 06:26:37;;;;;;;7.70;7.03;;;20.20;99.90;;;;;;5043185;28;20175;-64
2022/06/05 06:29:03;;;;;;;7.90;7.30;;;20.30;99.90;;;;;;5052278;28;20167;-64
2022/06/05 06:31:29;;;;;;;7.97;7.03;;;20.30;99.90;;;;;;5052579;28;20171;-65
2022/06/05 06:33:55;;;;;;;8.20;7.50;;;20.30;99.90;;;;;;5052238;28;20195;-65
2022/06/05 06:36:21;;;;;;;7.67;7.13;;;20.40;99.90;;;;;;5052531;28;20171;-64
2022/06/05 06:38:46;;;;;;;7.13;6.70;;;20.40;99.90;;;;;;5052300;28;20258;-64
2022/06/05 06:41:15;;;;;;;7.65;7.13;;;20.40;99.90;;;;;;5052210;28;20636;-64
2022/06/05 06:43:43;;;;;;;11.33;8.37;;;20.40;99.90;;;;;;5051994;28;20194;-63
2022/06/05 06:46:09;;;;;;;8.40;7.67;;;20.40;99.90;;;;;;5052029;28;20577;-65
2022/06/05 06:48:35;;;;;;;7.97;7.43;;;20.40;99.90;;;;;;5032523;28;20167;-64
2022/06/05 06:51:01;;;;;;;8.30;7.70;;;20.40;99.90;;;;;;5047535;28;20646;-64
2022/06/05 06:53:28;;;;;;;7.97;7.37;;;20.50;99.90;;;;;;5051969;28;20642;-63
2022/06/05 06:55:55;;;;;;;10.37;9.63;;;20.50;99.90;;;;;;5051739;28;20186;-65
2022/06/05 06:58:21;;;;;;;7.90;7.30;;;20.60;99.90;;;;;;5052171;28;20167;-65
2022/06/05 07:00:47;;;;;;;7.78;7.18;;;20.60;99.90;;;;;;5052147;28;20171;-65
2022/06/05 07:03:12;;;;;;;9.20;8.60;;;20.60;99.90;;;;;;5051765;28;20661;-65
2022/06/05 07:05:39;;;;;;;9.18;8.43;;;20.70;99.90;;;;;;5051444;28;20202;-65
2022/06/05 07:08:07;;;;;;;7.20;6.70;;;20.80;99.90;;;;;;5051883;28;20637;-64
2022/06/05 07:10:32;;;;;;;8.73;8.13;;;20.90;99.90;;;;;;5051833;28;20553;-64
2022/06/05 07:12:58;;;;;;;7.80;7.20;;;21.00;99.90;;;;;;5050559;28;20198;-65
2022/06/05 07:15:26;;;;;;;7.80;7.13;;;21.20;99.90;;;;;;5051473;28;20202;-65
2022/06/05 07:17:52;;;;;;;7.63;6.97;;;21.30;99.90;;;;;;5051618;28;20175;-64
2022/06/05 07:20:17;;;;;;;7.80;7.20;;;21.60;99.90;;;;;;5051869;28;20189;-64
2022/06/05 07:22:43;;;;;;;7.57;7.10;;;21.80;99.90;;;;;;5051396;28;20175;-64
2022/06/05 07:25:09;;;;;;;8.15;7.55;;;22.10;99.90;;;;;;5051109;28;20234;-64
2022/06/05 07:27:34;;;;;;;7.50;7.00;;;22.10;99.90;;;;;;5051475;28;20177;-65
2022/06/05 07:30:00;;;;;;;7.65;6.95;;;22.20;99.90;;;;;;5049844;28;20642;-64
2022/06/05 07:32:25;;;;;;;7.47;6.78;;;22.40;99.90;;;;;;5050354;28;20174;-66
2022/06/05 07:34:51;;;;;;;6.82;6.28;;;22.60;99.90;;;;;;5051058;28;20237;-65
2022/06/05 07:37:17;;;;;;;7.18;6.57;;;22.70;99.90;;;;;;5051633;28;20174;-65
2022/06/05 07:39:43;;;;;;;7.78;7.13;;;22.70;99.90;;;;;;5051222;28;20248;-65
2022/06/05 07:42:10;;;;;;;7.07;6.50;;;22.70;99.90;;;;;;5051164;28;20174;-65
2022/06/05 07:44:38;;;;;;;7.00;6.50;;;22.60;99.90;;;;;;5050753;28;20245;-65
2022/06/05 07:47:06;;;;;;;7.10;6.50;;;22.70;99.90;;;;;;5051152;28;20630;-65
2022/06/05 07:49:34;;;;;;;7.03;6.28;;;22.80;99.90;;;;;;5049571;28;20645;-65
2022/06/05 07:54:44;;;;;;;6.68;6.28;;;22.60;99.90;;;;;;5051052;28;20293;-64
2022/06/05 07:57:13;;;;;;;6.72;6.22;;;22.60;99.90;;;;;;5051056;28;20261;-64
2022/06/05 07:59:41;;;;;;;7.10;6.60;;;22.60;99.90;;;;;;5049725;28;20232;-63
2022/06/05 08:02:16;;;;;;;7.18;6.63;;;22.50;99.90;;;;;;5051101;28;20641;-64
2022/06/05 08:04:43;;;;;;;7.28;6.57;;;22.40;99.90;;;;;;5045509;28;20213;-64
2022/06/05 08:07:11;;;;;;;7.53;6.93;;;22.50;99.90;;;;;;5050980;28;20167;-63
2022/06/05 08:09:38;;;;;;;7.65;6.90;;;22.60;99.90;;;;;;5050836;28;20170;-63
2022/06/05 08:12:05;;;;;;;7.80;7.13;;;22.70;99.90;;;;;;5050761;28;20179;-64
2022/06/05 08:14:34;;;;;;;7.15;6.45;;;22.70;99.90;;;;;;5050607;28;20187;-64
2022/06/05 08:17:00;;;;;;;7.55;6.95;;;22.80;99.90;;;;;;5050672;28;20587;-64
2022/06/05 08:19:26;;;;;;;7.75;7.15;;;22.80;99.90;;;;;;5051090;28;20175;-64
2022/06/05 08:21:52;;;;;;;8.25;7.53;;;22.70;99.90;;;;;;5050434;28;20248;-64
2022/06/05 08:24:18;;;;;;;7.57;7.05;;;22.50;99.90;;;;;;5050387;28;20210;-63
2022/06/05 08:26:44;;;;;;;8.20;7.60;;;22.10;99.90;;;;;;5050846;28;20833;-64
2022/06/05 08:29:10;;;;;;;8.70;8.05;;;21.80;99.90;;;;;;5050904;28;20171;-64
2022/06/05 08:31:37;;;;;;;9.52;8.70;;;21.60;99.90;;;;;;5050968;28;20178;-65
2022/06/05 08:34:04;;;;;;;8.75;8.05;;;21.40;99.90;;;;;;5050475;28;20190;-64
2022/06/05 08:36:30;;;;;;;8.98;8.38;;;21.30;99.90;;;;;;5050599;28;20179;-64
2022/06/05 08:42:02;;;;;;;9.43;8.73;;;21.10;99.90;;;;;;5031164;28;20221;-65
2022/06/05 08:45:02;;;;;;;9.50;8.60;;;20.90;99.90;;;;;;5034393;28;20550;-64
2022/06/05 08:47:39;;;;;;;9.13;8.27;;;20.70;99.90;;;;;;5050549;28;20190;-65
2022/06/05 08:50:13;;;;;;;9.60;8.73;;;20.60;99.90;;;;;;5050615;28;20551;-65
2022/06/05 08:52:47;;;;;;;10.17;9.27;;;20.50;99.90;;;;;;5048746;28;20214;-65
2022/06/05 08:55:30;;;;;;;10.10;9.40;;;20.40;99.90;;;;;;5050416;28;20178;-65
2022/06/05 08:58:13;;;;;;;10.27;9.47;;;20.30;99.90;;;;;;5050565;28;20217;-65
2022/06/05 09:01:12;;;;;;;10.20;9.40;;;20.10;99.90;;;;;;5049454;28;20182;-65
2022/06/05 09:03:58;;;;;;;10.87;9.97;;;20.00;99.90;;;;;;5033303;28;20207;-66
2022/06/05 09:06:33;;;;;;;9.50;8.80;;;19.70;99.90;;;;;;5050692;28;20175;-66
2022/06/05 09:09:05;;;;;;;10.13;9.23;;;19.60;99.90;;;;;;5050224;28;20224;-65
2022/06/05 09:11:40;;;;;;;11.53;10.63;;;19.50;99.90;;;;;;5050821;28;20193;-65
2022/06/05 09:14:06;;;;;;;12.30;10.40;;;19.40;99.90;;;;;;5050092;28;20198;-65
2022/06/05 09:16:37;;;;;;;11.43;10.47;;;19.40;99.90;;;;;;5052776;28;20170;-66
2022/06/05 09:19:04;;;;;;;11.47;10.57;;;19.40;99.90;;;;;;5052888;28;20186;-65
2022/06/05 09:21:36;;;;;;;9.97;9.23;;;19.30;99.90;;;;;;5053062;28;20182;-65
2022/06/05 09:24:13;;;;;;;11.27;10.30;;;19.30;99.90;;;;;;5050098;28;20210;-65
2022/06/05 09:26:50;;;;;;;9.53;8.80;;;19.30;99.90;;;;;;5054115;28;20187;-64
2022/06/05 09:29:49;;;;;;;11.70;10.73;;;19.40;99.90;;;;;;5052012;28;20190;-65
2022/06/05 09:32:34;;;;;;;11.00;10.20;;;19.40;99.90;;;;;;5053363;28;20170;-66
2022/06/05 09:35:16;;;;;;;10.47;9.63;;;19.40;99.90;;;;;;5041796;28;20187;-65
2022/06/05 09:37:54;;;;;;;12.10;11.00;;;19.30;99.90;;;;;;5053689;28;20171;-65
2022/06/05 09:40:49;;;;;;;12.30;11.17;;;19.20;99.90;;;;;;5053454;28;20178;-65
2022/06/05 09:43:36;;;;;;;11.70;10.70;;;19.10;99.90;;;;;;5023067;28;20219;-65
2022/06/05 09:46:34;;;;;;;13.23;12.13;;;19.00;99.90;;;;;;5033689;28;20207;-64
2022/06/05 09:49:10;;;;;;;13.70;12.60;;;18.80;99.90;;;;;;5046727;28;20171;-64
2022/06/05 09:51:40;;;;;;;14.80;13.30;;;18.60;99.90;;;;;;5054101;28;20250;-64
2022/06/05 09:54:30;;;;;;;14.47;13.27;;;18.60;99.90;;;;;;5053615;28;20206;-66
2022/06/05 10:00:15;;;;;;;16.93;15.20;;;18.90;99.90;;;;;;5053199;28;20684;-66
2022/06/05 10:02:46;;;;;;;16.80;15.13;;;19.00;99.90;;;;;;5053179;28;20174;-65
2022/06/05 10:05:24;;;;;;;18.33;16.63;;;19.20;99.90;;;;;;5053207;28;20199;-65
2022/06/05 10:07:55;;;;;;;17.67;16.07;;;19.40;99.90;;;;;;5052259;28;20224;-65
2022/06/05 10:10:32;;;;;;;17.27;15.60;;;19.60;99.90;;;;;;5053008;28;20182;-65
2022/06/05 10:13:31;;;;;;;18.00;16.30;;;19.70;99.90;;;;;;5033363;28;20191;-65
2022/06/05 10:16:04;;;;;;;17.53;16.00;;;19.90;99.90;;;;;;5036940;28;20181;-62
2022/06/05 10:18:52;;;;;;;17.97;16.43;;;20.10;99.90;;;;;;5053364;28;20175;-64
2022/06/05 10:21:21;;;;;;;17.17;15.67;;;20.10;99.90;;;;;;5053328;28;20639;-64
2022/06/05 10:24:04;;;;;;;15.33;14.00;;;20.10;99.90;;;;;;5079037;22;20226;-67
2022/06/05 10:26:39;;;;;;;15.70;14.00;;;20.10;99.90;;;;;;5052728;28;20179;-66
2022/06/05 10:29:26;;;;;;;15.27;13.80;;;20.10;99.90;;;;;;5052495;28;20218;-66
2022/06/05 10:32:00;;;;;;;14.70;13.40;;;20.00;99.90;;;;;;5052905;28;20171;-65
2022/06/05 10:34:47;;;;;;;16.53;15.10;;;19.90;99.90;;;;;;5052233;28;20783;-66
2022/06/05 10:37:23;;;;;;;15.20;13.90;;;20.00;99.90;;;;;;5039151;28;20190;-66
2022/06/05 10:40:20;;;;;;;15.23;13.93;;;20.10;99.90;;;;;;5033213;28;20183;-66
2022/06/05 10:43:01;;;;;;;14.53;13.20;;;20.20;99.90;;;;;;5033105;28;20262;-67
2022/06/05 10:45:58;;;;;;;14.70;13.40;;;20.40;99.90;;;;;;5044066;28;20255;-66
2022/06/05 10:48:47;;;;;;;14.87;13.63;;;20.40;99.90;;;;;;5049757;28;20179;-67
2022/06/05 10:51:31;;;;;;;15.37;14.00;;;20.40;99.90;;;;;;5052375;28;20252;-67
2022/06/05 10:54:20;;;;;;;14.20;13.10;;;20.50;99.90;;;;;;5051764;28;20377;-67
2022/06/05 10:57:13;;;;;;;14.10;12.90;;;20.70;99.90;;;;;;5051812;28;20182;-66
2022/06/05 10:59:38;;;;;;;14.02;12.63;;;20.90;99.90;;;;;;5052301;28;20178;-65
2022/06/05 11:02:22;;;;;;;15.53;14.20;;;21.10;99.90;;;;;;5052039;28;20166;-66
2022/06/05 11:05:06;;;;;;;16.03;14.70;;;21.00;99.90;;;;;;5051691;28;20268;-66
2022/06/05 11:08:07;;;;;;;16.97;15.67;;;20.90;99.90;;;;;;5052468;28;20167;-66
2022/06/05 11:14:12;;;;;;;15.98;14.68;;;20.80;99.90;;;;;;5051928;28;20718;-66
2022/06/05 11:17:13;;;;;;;15.07;13.10;;;20.90;99.90;;;;;;5032347;28;20180;-65
2022/06/05 11:19:48;;;;;;;13.40;12.25;;;21.50;99.90;;;;;;5035579;28;20170;-65
2022/06/05 11:22:15;;;;;;;11.48;10.32;;;22.30;99.90;;;;;;5052043;28;20534;-67
2022/06/05 11:24:55;;;;;;;11.00;10.20;;;22.90;99.90;;;;;;5051067;28;20202;-65
2022/06/05 11:27:51;;;;;;;10.98;9.98;;;23.30;99.90;;;;;;5052084;28;20199;-66
2022/06/05 11:30:45;;;;;;;10.25;9.45;;;23.60;99.90;;;;;;5052316;28;20321;-66
2022/06/05 11:33:27;;;;;;;9.82;9.00;;;24.00;99.90;;;;;;5040398;28;20213;-66
2022/06/05 11:36:28;;;;;;;10.05;9.18;;;24.50;99.90;;;;;;5051514;28;20403;-66
2022/06/05 11:39:15;;;;;;;10.35;9.57;;;25.00;99.90;;;;;;5051216;28;20179;-65
2022/06/05 11:41:43;;;;;;;8.57;7.97;;;25.00;99.90;;;;;;5051758;28;20274;-66
2022/06/05 11:44:37;;;;;;;9.88;9.18;;;25.20;99.90;;;;;;5051144;28;20280;-65
2022/06/05 11:47:06;;;;;;;12.55;11.65;;;25.40;99.90;;;;;;5051513;28;20179;-66
2022/06/05 11:50:01;;;;;;;8.55;7.95;;;24.90;99.90;;;;;;5051996;28;20253;-66
2022/06/05 11:52:36;;;;;;;9.73;9.02;;;24.40;99.90;;;;;;5031883;28;20225;-66
2022/06/05 11:55:33;;;;;;;9.15;8.45;;;24.40;99.90;;;;;;5042166;28;20600;-66
2022/06/05 11:58:26;;;;;;;10.10;9.25;;;24.50;99.90;;;;;;5051265;28;20174;-66
2022/06/05 12:01:03;;;;;;;10.25;9.23;;;25.20;99.90;;;;;;5051273;28;20179;-66
2022/06/05 12:03:40;;;;;;;8.02;7.43;;;25.90;99.90;;;;;;5051165;28;20673;-65
2022/06/05 12:06:28;;;;;;;7.43;6.93;;;26.70;99.90;;;;;;5032854;28;20496;-71
2022/06/05 12:09:00;;;;;;;7.20;6.70;;;27.60;99.90;;;;;;5035035;28;20263;-65
2022/06/05 12:11:43;;;;;;;8.02;7.43;;;27.70;99.90;;;;;;5051851;28;20167;-66
2022/06/05 12:14:35;;;;;;;8.50;7.90;;;27.20;99.90;;;;;;5050346;28;20681;-65
2022/06/05 12:17:20;;;;;;;8.73;7.82;;;26.70;99.90;;;;;;5051679;28;20273;-65
2022/06/05 12:20:08;;;;;;;8.43;7.65;;;26.40;99.90;;;;;;5051303;28;20178;-66
2022/06/05 12:22:51;;;;;;;9.68;8.88;;;25.90;99.90;;;;;;5051626;28;20181;-65
2022/06/05 12:25:26;;;;;;;11.63;10.82;;;26.00;99.90;;;;;;5051264;28;20696;-65
2022/06/05 12:28:31;;;;;;;13.85;12.77;;;25.70;99.90;;;;;;5051245;28;20202;-65
2022/06/05 12:31:20;;;;;;;8.50;7.90;;;25.50;99.90;;;;;;5040403;28;20266;-66
2022/06/05 12:34:10;;;;;;;8.52;7.93;;;25.30;99.90;;;;;;5039737;28;20272;-66
2022/06/05 12:36:40;;;;;;;8.30;7.78;;;25.00;99.90;;;;;;5051335;28;20556;-67
2022/06/05 12:39:16;;;;;;;8.43;7.70;;;24.80;99.90;;;;;;5050791;28;20171;-67
2022/06/05 12:42:23;;;;;;;8.38;7.70;;;24.70;99.90;;;;;;5051560;28;20165;-67
2022/06/05 12:44:58;;;;;;;8.60;8.00;;;24.80;99.90;;;;;;5035086;28;20249;-65
2022/06/05 12:47:39;;;;;;;8.10;7.40;;;24.70;99.90;;;;;;5050106;28;20170;-67
2022/06/05 12:50:28;;;;;;;8.25;7.63;;;24.80;99.90;;;;;;5052002;28;20175;-67
2022/06/05 12:53:01;;;;;;;8.15;7.55;;;24.60;99.90;;;;;;5054677;28;20614;-66
2022/06/05 12:55:42;;;;;;;7.85;7.30;;;24.30;99.90;;;;;;5054578;28;20167;-65
2022/06/05 12:58:07;;;;;;;7.80;7.25;;;24.00;99.90;;;;;;5054164;28;20175;-66
2022/06/05 13:01:11;;;;;;;8.73;7.75;;;24.00;99.90;;;;;;5054910;28;20228;-65
2022/06/05 13:03:45;;;;;;;8.75;8.02;;;24.10;99.90;;;;;;5054238;28;20205;-67
2022/06/05 13:06:31;;;;;;;8.85;8.25;;;24.10;99.90;;;;;;5054325;28;20179;-67
2022/06/05 13:09:06;;;;;;;9.35;8.65;;;24.20;99.90;;;;;;5054148;28;20209;-67
2022/06/05 13:11:40;;;;;;;10.70;9.90;;;24.00;99.90;;;;;;5054508;28;20171;-67
2022/06/05 13:14:15;;;;;;;10.88;10.02;;;23.70;99.90;;;;;;5053388;28;20190;-67
2022/06/05 13:17:12;;;;;;;10.85;9.95;;;23.30;99.90;;;;;;5054540;28;20595;-67
2022/06/05 13:20:09;;;;;;;10.75;9.93;;;22.80;99.90;;;;;;5053968;28;20214;-67
2022/06/05 13:22:47;;;;;;;12.05;11.05;;;22.50;99.90;;;;;;5053291;28;20237;-67
2022/06/05 13:25:21;;;;;;;12.27;11.32;;;22.30;99.90;;;;;;5049529;28;20222;-66
2022/06/05 13:27:59;;;;;;;14.03;12.73;;;21.90;99.90;;;;;;5047714;28;20647;-66
2022/06/05 13:30:28;;;;;;;13.82;12.68;;;21.60;99.90;;;;;;5050118;28;20790;-66
2022/06/05 13:32:59;;;;;;;13.50;12.33;;;21.40;99.90;;;;;;5051095;28;20653;-67